KBLI

Bellingham International Airport

Bellingham, Washington, USA
METAR KBLI 201453Z 02007KT 10SM OVC100 M05/M09 A3019 RMK AO2 SLP235 T10501089 56007
Observed Flight Rules
Feb-20 @ 14:53 UTC (2 hours ago) Visual Flight Rules
Wind Visibility Clouds
20° at 7 knots 10 miles
  • Overcast at 10,000' AGL
Temperatures Readings
Current -5°C / 23°F
Dewpoint -9°C / 16°F
Humidity 74%
Altimeter 30.19" Hg
Pressure 1023.5 hPa
Elevation 50
METAR KBLI 201453Z 02007KT 10SM OVC100 M05/M09 A3019 RMK AO2 SLP235 T10501089 56007
Observed Flight Rules
Feb-20 @ 14:53 UTC
(2 hours ago)
VFR
Wind Visibility
20° at 7 knots 10 miles
Clouds
  • Overcast at 10,000' AGL
Temperature Dewpoint
-5°C / 23°F -9°C / 16°F
Humidity Altimeter Pressure
74% 30.19" Hg 1023.5 hPa